Time,TemperatureF,DewpointF,PressureIn,WindDirection,WindDirectionDegrees,WindSpeedMPH,WindSpeedGustMPH,Humidity,HourlyPrecipIn,Conditions,Clouds,dailyrainin,SoftwareType,DateUTC
2013-08-20 00:00:00,70.3,64.9,30.00,South,180,2.8,8.2,83,0.00,,SKC,0.00,VWS V14.01,2013-08-20 05:00:00,
2013-08-20 00:20:00,70.2,65.1,30.00,SSE,158,2.8,8.2,84,0.00,,SKC,0.00,VWS V14.01,2013-08-20 05:20:00,
2013-08-20 00:40:00,69.8,65.1,30.00,SE,135,1.0,10.6,85,0.00,,SKC,0.00,VWS V14.01,2013-08-20 05:40:00,
2013-08-20 01:00:00,69.6,65.2,30.00,SSW,202,1.5,9.4,86,0.00,,SKC,0.00,VWS V14.01,2013-08-20 06:00:00,
2013-08-20 01:20:00,69.4,65.7,29.97,SSE,158,0.0,8.2,88,0.00,,SKC,0.00,VWS V14.01,2013-08-20 06:20:00,
2013-08-20 01:40:00,69.3,65.6,29.97,SSE,158,0.0,9.4,88,0.00,,SKC,0.00,VWS V14.01,2013-08-20 06:40:00,
2013-08-20 02:00:00,69.3,65.9,29.97,SSE,158,1.8,10.6,89,0.00,,SKC,0.00,VWS V14.01,2013-08-20 07:00:00,
2013-08-20 02:20:00,68.9,65.5,29.97,WSW,248,1.3,9.4,89,0.00,,SKC,0.00,VWS V14.01,2013-08-20 07:20:00,
2013-08-20 02:40:00,68.9,65.5,29.97,ESE,112,0.0,6.3,89,0.00,,SKC,0.00,VWS V14.01,2013-08-20 07:40:00,
2013-08-20 03:00:00,68.7,65.3,29.97,SSE,158,1.0,9.4,89,0.00,,SKC,0.00,VWS V14.01,2013-08-20 08:00:00,
2013-08-20 03:20:00,68.7,65.0,29.97,SSE,158,1.8,6.3,88,0.00,,SKC,0.00,VWS V14.01,2013-08-20 08:20:00,
2013-08-20 03:40:00,68.7,65.3,29.97,SSW,202,3.9,5.9,89,0.00,,SKC,0.00,VWS V14.01,2013-08-20 08:40:00,
2013-08-20 04:00:00,68.5,65.2,29.97,SE,135,0.0,8.6,89,0.00,,SKC,0.00,VWS V14.01,2013-08-20 09:00:00,
2013-08-20 04:20:00,68.2,64.8,29.97,WSW,248,1.5,7.0,89,0.00,,SKC,0.00,VWS V14.01,2013-08-20 09:20:00,
2013-08-20 04:40:00,67.8,64.5,29.97,SSW,202,2.3,3.5,89,0.00,,SKC,0.00,VWS V14.01,2013-08-20 09:40:00,
2013-08-20 05:00:00,67.6,64.6,29.97,South,180,2.6,5.5,90,0.00,,SKC,0.00,VWS V14.01,2013-08-20 10:00:00,
2013-08-20 05:20:00,67.5,64.4,29.97,SSE,158,1.8,5.1,90,0.00,,SKC,0.00,VWS V14.01,2013-08-20 10:20:00,
2013-08-20 05:40:00,66.7,64.0,29.97,SE,135,2.8,4.3,91,0.00,,SKC,0.00,VWS V14.01,2013-08-20 10:40:00,
2013-08-20 06:00:00,66.0,63.6,29.97,SSE,158,0.0,4.3,92,0.00,,SKC,0.00,VWS V14.01,2013-08-20 11:00:00,
2013-08-20 06:40:00,66.0,64.2,29.97,SSE,158,0.0,3.5,94,0.00,,SKC,0.00,VWS V14.01,2013-08-20 11:40:00,
2013-08-20 07:00:00,66.4,64.6,29.97,NE,45,0.0,2.3,94,0.00,,SKC,0.00,VWS V14.01,2013-08-20 12:00:00,
2013-08-20 07:20:00,66.7,64.7,29.97,ESE,112,0.0,3.9,93,0.00,,SKC,0.00,VWS V14.01,2013-08-20 12:20:00,
2013-08-20 07:40:00,67.5,65.4,29.97,SSE,158,0.0,5.9,93,0.00,,SKC,0.00,VWS V14.01,2013-08-20 12:40:00,
2013-08-20 08:00:00,68.5,65.8,29.97,SSW,202,2.6,5.5,91,0.00,,SKC,0.00,VWS V14.01,2013-08-20 13:00:00,
2013-08-20 08:20:00,69.8,66.1,30.00,ESE,112,3.3,7.0,88,0.00,,SKC,0.00,VWS V14.01,2013-08-20 13:20:00,
2013-08-20 08:40:00,70.7,66.0,29.97,SSE,158,7.5,11.4,85,0.00,,SKC,0.00,VWS V14.01,2013-08-20 13:40:00,
2013-08-20 09:00:00,72.1,66.7,29.97,ESE,112,1.5,11.4,83,0.00,,SKC,0.00,VWS V14.01,2013-08-20 14:00:00,
2013-08-20 09:20:00,74.1,67.6,29.97,ENE,68,1.5,10.2,80,0.00,,SKC,0.00,VWS V14.01,2013-08-20 14:20:00,
2013-08-20 09:40:00,76.1,68.4,30.00,West,270,4.1,11.4,77,0.00,,SKC,0.00,VWS V14.01,2013-08-20 14:40:00,
2013-08-20 10:00:00,76.3,68.2,30.00,SSW,202,0.0,10.6,76,0.00,,SKC,0.00,VWS V14.01,2013-08-20 15:00:00,
2013-08-20 10:20:00,77.0,68.5,29.97,SSW,202,2.6,7.8,75,0.00,,SKC,0.00,VWS V14.01,2013-08-20 15:20:00,
2013-08-20 10:40:00,79.0,69.6,30.00,West,270,3.1,9.4,73,0.00,,SKC,0.00,VWS V14.01,2013-08-20 15:40:00,
2013-08-20 11:00:00,79.7,68.6,30.00,ENE,68,3.1,11.4,69,0.00,,SKC,0.00,VWS V14.01,2013-08-20 16:00:00,
2013-08-20 11:20:00,81.1,68.3,30.00,SSW,202,4.1,17.2,65,0.00,,SKC,0.00,VWS V14.01,2013-08-20 16:20:00,
2013-08-20 11:40:00,82.8,69.8,30.00,NNE,22,3.1,12.5,65,0.00,,SKC,0.00,VWS V14.01,2013-08-20 16:40:00,
2013-08-20 12:00:00,83.5,69.1,30.00,East,90,2.8,13.3,62,0.00,,SKC,0.00,VWS V14.01,2013-08-20 17:00:00,
2013-08-20 12:20:00,84.0,68.7,30.00,SSW,202,4.1,14.9,60,0.00,,SKC,0.00,VWS V14.01,2013-08-20 17:20:00,
2013-08-20 12:40:00,83.8,68.5,30.00,SSW,202,6.4,14.1,60,0.00,,SKC,0.00,VWS V14.01,2013-08-20 17:40:00,
2013-08-20 13:00:00,84.6,69.2,30.00,ENE,68,2.3,12.9,60,0.00,,SKC,0.00,VWS V14.01,2013-08-20 18:00:00,
2013-08-20 13:20:00,85.6,69.7,30.00,South,180,4.1,18.4,59,0.00,,SKC,0.00,VWS V14.01,2013-08-20 18:20:00,
2013-08-20 13:40:00,86.7,70.2,30.00,SSE,158,3.6,14.1,58,0.00,,SKC,0.00,VWS V14.01,2013-08-20 18:40:00,
2013-08-20 14:00:00,86.9,69.3,30.00,NNW,338,3.6,16.8,56,0.00,,SKC,0.00,VWS V14.01,2013-08-20 19:00:00,
2013-08-20 14:20:00,87.4,68.8,30.00,NW,315,2.3,17.2,54,0.00,,SKC,0.00,VWS V14.01,2013-08-20 19:20:00,
2013-08-20 14:40:00,88.7,70.5,30.00,SW,225,6.7,16.8,55,0.00,,SKC,0.00,VWS V14.01,2013-08-20 19:40:00,
2013-08-20 15:00:00,88.7,70.5,30.00,SSE,158,6.9,18.8,55,0.00,,SKC,0.00,VWS V14.01,2013-08-20 20:00:00,
2013-08-20 15:20:00,88.0,68.7,30.00,South,180,3.3,13.7,53,0.00,,SKC,0.00,VWS V14.01,2013-08-20 20:20:00,
2013-08-20 15:40:00,87.4,69.3,30.00,SSW,202,2.3,13.7,55,0.00,,SKC,0.00,VWS V14.01,2013-08-20 20:40:00,
2013-08-20 16:00:00,87.6,69.5,30.00,SE,135,3.1,13.7,55,0.00,,SKC,0.00,VWS V14.01,2013-08-20 21:00:00,
2013-08-20 16:20:00,87.4,69.3,30.00,WSW,248,2.8,20.0,55,0.00,,SKC,0.00,VWS V14.01,2013-08-20 21:20:00,
2013-08-20 16:40:00,88.0,69.3,30.00,SSW,202,3.1,12.9,54,0.00,,SKC,0.00,VWS V14.01,2013-08-20 21:40:00,
2013-08-20 17:00:00,87.8,68.6,30.00,WSW,248,4.4,14.9,53,0.00,,SKC,0.00,VWS V14.01,2013-08-20 22:00:00,
2013-08-20 17:20:00,87.1,68.4,30.00,SSW,202,4.9,14.1,54,0.00,,SKC,0.00,VWS V14.01,2013-08-20 22:20:00,
2013-08-20 17:40:00,85.8,68.8,30.00,SE,135,2.3,12.5,57,0.00,,SKC,0.00,VWS V14.01,2013-08-20 22:40:00,
2013-08-20 18:00:00,85.1,68.7,30.00,SSW,202,2.8,17.6,58,0.00,,SKC,0.00,VWS V14.01,2013-08-20 23:00:00,
2013-08-20 18:20:00,84.4,69.0,30.00,SE,135,3.9,11.0,60,0.00,,SKC,0.00,VWS V14.01,2013-08-20 23:20:00,
2013-08-20 18:40:00,83.7,69.3,30.00,SSW,202,3.1,12.5,62,0.00,,SKC,0.00,VWS V14.01,2013-08-20 23:40:00,
2013-08-20 19:00:00,82.9,69.1,30.00,SSW,202,3.1,17.2,63,0.00,,SKC,0.00,VWS V14.01,2013-08-21 00:00:00,
2013-08-20 19:20:00,82.2,69.3,30.00,South,180,2.6,12.5,65,0.00,,SKC,0.00,VWS V14.01,2013-08-21 00:20:00,
2013-08-20 19:40:00,81.1,68.7,30.00,SW,225,3.6,9.8,66,0.00,,SKC,0.00,VWS V14.01,2013-08-21 00:40:00,
2013-08-20 20:00:00,80.4,68.9,30.00,SSE,158,0.0,12.5,68,0.00,,SKC,0.00,VWS V14.01,2013-08-21 01:00:00,
2013-08-20 20:20:00,79.7,69.1,30.00,ESE,112,1.0,11.0,70,0.00,,SKC,0.00,VWS V14.01,2013-08-21 01:20:00,
2013-08-20 20:40:00,79.0,69.6,30.00,South,180,4.6,11.0,73,0.00,,SKC,0.00,VWS V14.01,2013-08-21 01:40:00,
2013-08-20 21:00:00,78.4,69.5,30.00,South,180,3.9,11.4,74,0.00,,SKC,0.00,VWS V14.01,2013-08-21 02:00:00,
2013-08-20 21:20:00,77.7,69.6,30.00,SSW,202,3.1,12.9,76,0.00,,SKC,0.00,VWS V14.01,2013-08-21 02:20:00,
2013-08-20 21:40:00,77.2,69.4,30.00,SSW,202,1.3,11.4,77,0.00,,SKC,0.00,VWS V14.01,2013-08-21 02:40:00,
2013-08-20 22:00:00,76.6,69.6,30.00,East,90,0.0,9.4,79,0.00,,SKC,0.00,VWS V14.01,2013-08-21 03:00:00,
2013-08-20 22:20:00,76.5,69.8,30.00,ESE,112,3.6,9.4,80,0.00,,SKC,0.00,VWS V14.01,2013-08-21 03:20:00,
2013-08-20 22:40:00,76.1,69.8,30.00,SSW,202,0.0,10.2,81,0.00,,SKC,0.00,VWS V14.01,2013-08-21 03:40:00,
2013-08-20 23:00:00,75.7,69.9,29.97,SSE,158,4.6,10.6,82,0.00,,SKC,0.00,VWS V14.01,2013-08-21 04:00:00,
2013-08-20 23:20:00,75.4,69.9,30.00,South,180,1.8,10.6,83,0.00,,SKC,0.00,VWS V14.01,2013-08-21 04:20:00,
2013-08-20 23:40:00,75.0,70.6,29.97,SSE,158,2.3,8.6,86,0.00,,SKC,0.00,VWS V14.01,2013-08-21 04:40:00,